< < Back
Terminal Aerodrome Forecast


Current Version              Previous Versions:   1  2  3  4  5  6  7  8  9  

Terminal Aerodrome Forecast

403
FTUS42 KGSP 311634 AAD
TAFGSP
TAF AMD
KGSP 311634Z 3117/0112 01004KT P6SM SCT020 BKN120
     FM010100 33007KT P6SM VCSH BKN060 OVC100
     FM010500 33012KT P6SM -RA BKN050=

Latest METAR

291
SAUS70 KWBC 010100 RRO
MTRGSP
METAR KGSP 010053Z 35006KT 10SM BKN070 OVC085 11/06 A2978 RMK AO2 SLP083
T01110061


USA.gov is the U.S. government's official web portal to all federal, state and local government web resources and services.